Time;durP1;ratioP1;P1;durP2;ratioP2;P2;SDS_P1;SDS_P2;PMS_P1;PMS_P2;Temp;Humidity;BMP_temperature;BMP_pressure;BME280_temperature;BME280_humidity;BME280_pressure;Samples;Min_cycle;Max_cycle;Signal;HPM_P1;HPM_P2
2023/03/01 00:01:08;;;;;;;0.50;0.50;;;1.20;99.90;;;;;;5038184;28;20469;-84
2023/03/01 00:03:34;;;;;;;0.40;0.40;;;1.20;99.90;;;;;;5013969;28;20454;-84
2023/03/01 00:06:00;;;;;;;0.40;0.40;;;1.20;99.90;;;;;;5029920;28;20441;-83
2023/03/01 00:08:27;;;;;;;0.53;0.53;;;1.10;99.90;;;;;;5010637;28;20193;-84
2023/03/01 00:11:13;;;;;;;0.40;0.40;;;1.20;99.90;;;;;;5016905;28;20557;-83
2023/03/01 00:13:40;;;;;;;0.40;0.40;;;1.00;99.90;;;;;;5036325;28;20442;-84
2023/03/01 00:16:11;;;;;;;0.50;0.50;;;0.90;99.90;;;;;;5030193;28;20822;-83
2023/03/01 00:18:37;;;;;;;0.40;0.40;;;0.90;99.90;;;;;;5033132;28;20418;-83
2023/03/01 00:21:03;;;;;;;0.40;0.40;;;1.00;99.90;;;;;;5028918;28;21008;-83
2023/03/01 00:23:28;;;;;;;0.40;0.40;;;0.90;99.90;;;;;;5030245;28;20187;-84
2023/03/01 00:25:54;;;;;;;0.53;0.53;;;0.90;99.90;;;;;;5019221;28;20718;-84
2023/03/01 00:28:20;;;;;;;0.40;0.40;;;0.80;99.90;;;;;;5027268;28;20675;-84
2023/03/01 00:30:46;;;;;;;0.50;0.50;;;1.10;99.90;;;;;;5030094;28;20191;-84
2023/03/01 00:33:12;;;;;;;0.50;0.50;;;1.10;99.90;;;;;;5031500;28;20481;-84
2023/03/01 00:35:38;;;;;;;0.50;0.50;;;0.90;99.90;;;;;;5020390;28;20513;-83
2023/03/01 00:38:04;;;;;;;0.50;0.50;;;0.90;99.90;;;;;;5030726;28;21008;-84
2023/03/01 00:40:32;;;;;;;0.50;0.50;;;1.00;99.90;;;;;;5027701;28;20470;-83
2023/03/01 00:42:58;;;;;;;0.50;0.50;;;1.00;99.90;;;;;;5029852;28;20246;-84
2023/03/01 00:45:24;;;;;;;0.50;0.50;;;1.10;99.90;;;;;;5011318;28;20450;-84
2023/03/01 00:47:50;;;;;;;0.40;0.40;;;0.80;99.90;;;;;;5013375;28;20179;-84
2023/03/01 00:50:16;;;;;;;0.40;0.40;;;0.80;99.90;;;;;;5009300;28;20195;-83
2023/03/01 00:52:42;;;;;;;0.60;0.60;;;1.00;99.90;;;;;;5027188;28;20861;-84
2023/03/01 00:55:07;;;;;;;0.60;0.60;;;0.70;99.90;;;;;;5012794;28;20520;-84
2023/03/01 00:57:33;;;;;;;0.50;0.50;;;0.80;99.90;;;;;;5026227;28;20270;-84
2023/03/01 00:59:59;;;;;;;0.50;0.50;;;0.90;99.90;;;;;;5030996;28;20198;-84
2023/03/01 01:02:25;;;;;;;0.50;0.50;;;0.90;99.90;;;;;;5025068;28;20215;-84
2023/03/01 01:04:50;;;;;;;0.43;0.43;;;0.90;99.90;;;;;;5022783;28;20184;-84
2023/03/01 01:07:16;;;;;;;0.40;0.40;;;0.80;99.90;;;;;;5041557;28;20597;-84
2023/03/01 01:09:42;;;;;;;0.50;0.50;;;0.80;99.90;;;;;;5029488;28;20529;-83
2023/03/01 01:12:08;;;;;;;0.50;0.50;;;0.60;99.90;;;;;;5034506;28;20210;-84
2023/03/01 01:14:34;;;;;;;0.40;0.40;;;0.40;99.90;;;;;;5010007;28;20661;-84
2023/03/01 01:16:59;;;;;;;0.40;0.40;;;0.70;99.90;;;;;;5032836;28;20485;-84
2023/03/01 01:19:26;;;;;;;0.47;0.47;;;0.60;99.90;;;;;;5032724;28;20839;-83
2023/03/01 01:21:51;;;;;;;0.50;0.50;;;0.70;99.90;;;;;;5042566;28;20184;-83
2023/03/01 01:24:18;;;;;;;0.60;0.60;;;0.70;99.90;;;;;;5021541;28;20453;-84
2023/03/01 01:26:43;;;;;;;0.40;0.40;;;0.50;99.90;;;;;;5031354;28;20574;-84
2023/03/01 01:29:09;;;;;;;0.50;0.50;;;0.20;99.90;;;;;;5027249;28;20440;-83
2023/03/01 01:31:36;;;;;;;0.50;0.50;;;0.60;99.90;;;;;;5017330;28;20712;-84
2023/03/01 01:34:04;;;;;;;0.50;0.50;;;0.50;99.90;;;;;;5043040;28;20470;-83
2023/03/01 01:36:30;;;;;;;0.40;0.40;;;0.40;99.90;;;;;;5031849;28;21020;-84
2023/03/01 01:38:56;;;;;;;0.50;0.50;;;0.40;99.90;;;;;;5030034;28;20476;-84
2023/03/01 01:41:24;;;;;;;0.40;0.40;;;0.40;99.90;;;;;;5038499;28;20524;-84
2023/03/01 01:44:14;;;;;;;0.50;0.50;;;0.40;99.90;;;;;;5035470;28;20430;-84
2023/03/01 01:47:01;;;;;;;0.53;0.53;;;0.30;99.90;;;;;;5036451;28;20449;-83
2023/03/01 01:49:32;;;;;;;0.57;0.57;;;0.30;99.90;;;;;;5031233;28;20446;-83
2023/03/01 01:52:13;;;;;;;0.50;0.50;;;0.40;99.90;;;;;;5033852;28;20946;-83
2023/03/01 01:54:58;;;;;;;0.40;0.40;;;0.60;99.90;;;;;;5007053;28;20981;-83
2023/03/01 01:57:29;;;;;;;0.50;0.50;;;0.50;99.90;;;;;;5023832;28;20552;-84
2023/03/01 01:59:59;;;;;;;0.50;0.50;;;0.50;99.90;;;;;;5042603;28;20438;-83
2023/03/01 02:02:25;;;;;;;0.60;0.60;;;0.40;99.90;;;;;;5029062;28;20438;-83
2023/03/01 02:05:10;;;;;;;0.60;0.60;;;0.30;99.90;;;;;;5015245;28;20442;-83
2023/03/01 02:07:38;;;;;;;0.43;0.43;;;0.30;99.90;;;;;;5033687;28;20445;-83
2023/03/01 02:10:04;;;;;;;0.50;0.50;;;0.40;99.90;;;;;;5025545;28;20440;-84
2023/03/01 02:12:30;;;;;;;0.50;0.50;;;0.50;99.90;;;;;;5028176;28;20430;-84
2023/03/01 02:14:56;;;;;;;0.50;0.50;;;0.30;99.90;;;;;;5024790;28;20809;-84
2023/03/01 02:17:22;;;;;;;0.50;0.50;;;0.50;99.90;;;;;;5025184;28;20485;-83
2023/03/01 02:19:54;;;;;;;0.50;0.50;;;0.50;99.90;;;;;;5043074;28;20179;-83
2023/03/01 02:22:31;;;;;;;0.50;0.50;;;0.50;99.90;;;;;;5029916;28;20934;-84
2023/03/01 02:25:19;;;;;;;0.60;0.60;;;0.50;99.90;;;;;;5011281;28;20472;-84
2023/03/01 02:27:56;;;;;;;0.40;0.40;;;0.60;99.90;;;;;;5012992;28;20461;-84
2023/03/01 02:30:24;;;;;;;0.60;0.60;;;0.70;99.90;;;;;;5010832;28;20450;-84
2023/03/01 02:32:51;;;;;;;0.40;0.40;;;0.50;99.90;;;;;;5029972;28;20958;-84
2023/03/01 02:35:18;;;;;;;0.60;0.60;;;0.60;99.90;;;;;;5026442;28;20492;-83
2023/03/01 02:37:44;;;;;;;0.40;0.40;;;0.70;99.90;;;;;;5029354;28;20442;-84
2023/03/01 02:40:17;;;;;;;0.60;0.60;;;0.50;99.90;;;;;;4975594;28;1066671;-84
2023/03/01 02:42:52;;;;;;;0.50;0.50;;;0.50;99.90;;;;;;5020364;28;20182;-84
2023/03/01 02:45:18;;;;;;;0.40;0.40;;;0.70;99.90;;;;;;5022022;28;20449;-84
2023/03/01 02:47:43;;;;;;;0.60;0.60;;;0.70;99.90;;;;;;5023305;28;20458;-84
2023/03/01 02:50:24;;;;;;;0.50;0.50;;;0.60;99.90;;;;;;5017669;28;20607;-84
2023/03/01 02:53:27;;;;;;;0.50;0.50;;;0.70;99.90;;;;;;5029706;28;20183;-84
2023/03/01 02:55:53;;;;;;;0.60;0.60;;;0.50;99.90;;;;;;5008884;28;20493;-83
2023/03/01 02:58:18;;;;;;;0.50;0.50;;;0.60;99.90;;;;;;5029145;28;20952;-84
2023/03/01 03:00:46;;;;;;;0.40;0.40;;;0.60;99.90;;;;;;5036428;28;20180;-84
2023/03/01 03:03:15;;;;;;;0.50;0.50;;;0.60;99.90;;;;;;5010258;28;20179;-84
2023/03/01 03:05:41;;;;;;;0.50;0.50;;;0.50;99.90;;;;;;5008636;28;20550;-83
2023/03/01 03:08:07;;;;;;;0.40;0.40;;;0.80;99.90;;;;;;5009461;28;20443;-84
2023/03/01 03:10:36;;;;;;;0.50;0.50;;;0.40;99.90;;;;;;5027066;28;20457;-83
2023/03/01 03:13:08;;;;;;;0.40;0.40;;;0.40;99.90;;;;;;5026843;28;20437;-83
2023/03/01 03:15:38;;;;;;;0.50;0.50;;;0.30;99.90;;;;;;5028528;28;20438;-83
2023/03/01 03:18:07;;;;;;;0.50;0.50;;;0.40;99.90;;;;;;5036961;28;20457;-83
2023/03/01 03:20:34;;;;;;;0.50;0.50;;;0.50;99.90;;;;;;5027916;28;20529;-84
2023/03/01 03:22:59;;;;;;;0.40;0.40;;;0.40;99.90;;;;;;5028043;28;20488;-83
2023/03/01 03:25:32;;;;;;;0.60;0.60;;;0.40;99.90;;;;;;5026707;28;20463;-84
2023/03/01 03:28:09;;;;;;;0.50;0.50;;;0.10;99.90;;;;;;5027121;28;20273;-85
2023/03/01 03:30:47;;;;;;;0.50;0.50;;;0.10;99.90;;;;;;5033481;28;20468;-84
2023/03/01 03:33:41;;;;;;;0.40;0.40;;;-0.10;99.90;;;;;;5045515;28;21215;-84
2023/03/01 03:36:12;;;;;;;0.50;0.50;;;0.20;99.90;;;;;;5039596;28;20469;-85
2023/03/01 03:38:41;;;;;;;0.40;0.40;;;0.10;99.90;;;;;;5000903;28;20454;-85
2023/03/01 03:41:08;;;;;;;0.40;0.40;;;0.10;99.90;;;;;;5025692;28;20537;-84
2023/03/01 03:43:37;;;;;;;0.60;0.60;;;0.20;99.90;;;;;;5014053;28;20456;-84
2023/03/01 03:46:52;;;;;;;0.50;0.50;;;0.00;99.90;;;;;;5029567;28;20454;-85
2023/03/01 03:49:18;;;;;;;0.50;0.50;;;-0.10;99.90;;;;;;5036138;28;20442;-84
2023/03/01 03:51:46;;;;;;;0.50;0.50;;;0.00;99.90;;;;;;5010509;28;20451;-83
2023/03/01 03:54:11;;;;;;;0.60;0.60;;;0.00;99.90;;;;;;5029903;28;20547;-84
2023/03/01 03:56:37;;;;;;;0.60;0.60;;;0.30;99.90;;;;;;5023940;28;20490;-83
2023/03/01 03:59:02;;;;;;;0.50;0.50;;;0.20;99.90;;;;;;5023623;28;20187;-84
2023/03/01 04:01:28;;;;;;;0.60;0.60;;;0.10;99.90;;;;;;5047063;28;20202;-84
2023/03/01 04:03:54;;;;;;;0.60;0.60;;;0.30;99.90;;;;;;5031605;28;20899;-84
2023/03/01 04:06:20;;;;;;;0.50;0.50;;;0.10;99.90;;;;;;5014936;28;20194;-83
2023/03/01 04:08:46;;;;;;;0.50;0.50;;;0.10;99.90;;;;;;5031406;28;20427;-84
2023/03/01 04:17:36;;;;;;;0.40;0.40;;;-0.10;99.90;;;;;;5029050;28;20496;-84
2023/03/01 04:20:06;;;;;;;0.57;0.57;;;-0.10;99.90;;;;;;5045244;28;20433;-84
2023/03/01 04:25:58;;;;;;;0.60;0.60;;;0.20;99.90;;;;;;5008312;28;20436;-84
2023/03/01 04:28:29;;;;;;;0.50;0.50;;;0.10;99.90;;;;;;5013151;28;20465;-83
2023/03/01 04:30:57;;;;;;;0.50;0.50;;;0.00;99.90;;;;;;5034320;28;20525;-83
2023/03/01 04:33:40;;;;;;;0.60;0.60;;;0.30;99.90;;;;;;5050126;28;20456;-84
2023/03/01 04:36:44;;;;;;;0.60;0.60;;;0.00;99.90;;;;;;5028481;28;20568;-84
2023/03/01 04:43:05;;;;;;;0.40;0.40;;;-0.10;99.90;;;;;;4949481;28;20566;-84
2023/03/01 04:46:20;;;;;;;0.50;0.50;;;-0.30;99.90;;;;;;4959404;28;20449;-84
2023/03/01 04:57:26;;;;;;;0.60;0.60;;;-0.40;99.90;;;;;;4907353;29;20577;-84
2023/03/01 04:59:40;;;;;;;0.50;0.50;;;-0.30;99.90;;;;;;4953448;28;20571;-84
2023/03/01 05:05:37;;;;;;;0.50;0.50;;;0.00;99.90;;;;;;4918124;29;20488;-84
2023/03/01 05:08:17;;;;;;;0.47;0.47;;;0.00;99.90;;;;;;4968658;28;20928;-84
2023/03/01 05:10:51;;;;;;;0.60;0.60;;;-0.20;99.90;;;;;;5031829;28;20456;-84
2023/03/01 05:13:20;;;;;;;0.60;0.60;;;-0.20;99.90;;;;;;5033802;28;20425;-84
2023/03/01 05:15:55;;;;;;;0.70;0.70;;;0.00;99.90;;;;;;5028595;28;20894;-83
2023/03/01 05:18:21;;;;;;;0.40;0.40;;;-0.20;99.90;;;;;;5018112;28;20495;-84
2023/03/01 05:20:47;;;;;;;0.67;0.67;;;0.10;99.90;;;;;;5034591;28;20471;-84
2023/03/01 05:26:30;;;;;;;0.50;0.50;;;-0.30;99.90;;;;;;5041869;28;20464;-84
2023/03/01 05:29:01;;;;;;;0.50;0.50;;;-0.10;99.90;;;;;;5022048;28;20449;-84
2023/03/01 05:31:33;;;;;;;0.40;0.40;;;-0.10;99.90;;;;;;5030655;28;20464;-84
2023/03/01 05:34:22;;;;;;;0.50;0.50;;;-0.10;99.90;;;;;;5014368;28;20450;-84
2023/03/01 05:37:00;;;;;;;0.50;0.50;;;-0.10;99.90;;;;;;5031083;28;21255;-84
2023/03/01 05:42:57;;;;;;;0.60;0.60;;;-0.20;99.90;;;;;;4999691;28;21038;-85
2023/03/01 05:45:24;;;;;;;0.60;0.60;;;-0.20;99.90;;;;;;5011599;28;20611;-84
2023/03/01 05:51:00;;;;;;;0.50;0.50;;;-0.10;99.90;;;;;;5006945;28;20895;-83
2023/03/01 05:53:26;;;;;;;0.53;0.53;;;-0.20;99.90;;;;;;5029321;28;20525;-84
2023/03/01 05:55:52;;;;;;;0.60;0.60;;;0.00;99.90;;;;;;5027234;28;20474;-85
2023/03/01 05:58:19;;;;;;;0.60;0.60;;;0.00;99.90;;;;;;5029261;28;20438;-84
2023/03/01 06:00:47;;;;;;;0.60;0.60;;;-0.10;99.90;;;;;;5023503;28;20179;-83
2023/03/01 06:03:15;;;;;;;0.50;0.50;;;-0.20;99.90;;;;;;5016290;28;20430;-84
2023/03/01 06:05:42;;;;;;;0.50;0.50;;;0.00;99.90;;;;;;5025642;28;20956;-84
2023/03/01 06:08:27;;;;;;;0.60;0.60;;;-0.30;99.90;;;;;;5028453;28;20449;-83
2023/03/01 06:14:10;;;;;;;0.60;0.60;;;-0.40;99.90;;;;;;5017606;28;20457;-83
2023/03/01 06:16:35;;;;;;;0.60;0.60;;;-0.30;99.90;;;;;;5028402;28;20478;-83
2023/03/01 06:19:14;;;;;;;0.60;0.60;;;-0.10;99.90;;;;;;5032696;28;20450;-83
2023/03/01 06:21:50;;;;;;;0.50;0.50;;;-0.40;99.90;;;;;;5029939;28;20187;-83
2023/03/01 06:25:04;;;;;;;0.50;0.50;;;-0.30;99.90;;;;;;5002012;28;20458;-83
2023/03/01 06:28:14;;;;;;;0.53;0.53;;;-0.20;99.90;;;;;;4997926;28;20498;-83
2023/03/01 06:34:05;;;;;;;;;;;;;;;;;;;;;
2023/03/01 06:36:37;;;;;;;0.40;0.40;;;-0.10;99.90;;;;;;5023935;28;20818;-82
2023/03/01 06:39:05;;;;;;;0.50;0.50;;;-0.20;99.90;;;;;;5020742;28;20521;-83
2023/03/01 06:41:31;;;;;;;0.50;0.50;;;-0.20;99.90;;;;;;5031619;28;20481;-83
2023/03/01 06:43:59;;;;;;;0.60;0.60;;;-0.30;99.90;;;;;;5031991;28;20438;-82
2023/03/01 06:46:24;;;;;;;0.60;0.60;;;-0.10;99.90;;;;;;5011463;28;20462;-84
2023/03/01 06:48:50;;;;;;;0.50;0.50;;;0.10;99.90;;;;;;5022030;28;20439;-83
2023/03/01 06:51:15;;;;;;;0.50;0.50;;;0.00;99.90;;;;;;5021131;28;20195;-83
2023/03/01 06:53:41;;;;;;;0.50;0.50;;;-0.10;99.90;;;;;;5010473;28;20250;-83
2023/03/01 06:56:14;;;;;;;0.40;0.40;;;0.10;99.90;;;;;;5026362;28;20219;-83
2023/03/01 06:58:48;;;;;;;0.40;0.40;;;-0.10;99.90;;;;;;5019814;28;20179;-83
2023/03/01 07:01:55;;;;;;;0.40;0.40;;;-0.20;99.90;;;;;;5025844;28;20975;-84
2023/03/01 07:04:19;;;;;;;0.60;0.60;;;0.00;99.90;;;;;;5025183;28;20523;-83
2023/03/01 07:06:45;;;;;;;0.60;0.60;;;0.10;99.90;;;;;;5008243;28;20809;-83
2023/03/01 07:09:10;;;;;;;0.57;0.57;;;0.10;99.90;;;;;;5006588;28;20282;-83
2023/03/01 07:11:36;;;;;;;0.60;0.60;;;0.20;99.90;;;;;;5023197;28;20188;-83
2023/03/01 07:21:21;;;;;;;0.40;0.40;;;-0.20;99.90;;;;;;5012826;28;20953;-83
2023/03/01 07:24:32;;;;;;;;;;;;;;;;;;;;;
2023/03/01 07:26:58;;;;;;;0.50;0.50;;;-0.30;99.90;;;;;;5022070;28;20447;-81
2023/03/01 07:30:05;;;;;;;0.60;0.60;;;0.00;99.90;;;;;;5007896;28;20456;-84
2023/03/01 07:32:30;;;;;;;0.50;0.50;;;0.00;99.90;;;;;;5023249;28;20192;-81
2023/03/01 07:35:27;;;;;;;0.37;0.37;;;0.20;99.90;;;;;;5027083;28;20434;-81
2023/03/01 07:38:01;;;;;;;0.50;0.50;;;0.00;99.90;;;;;;5029407;28;20753;-81
2023/03/01 07:40:27;;;;;;;0.50;0.50;;;-0.10;99.90;;;;;;5028050;28;20568;-81
2023/03/01 07:46:18;;;;;;;0.50;0.50;;;0.00;99.90;;;;;;5013106;28;20480;-82
2023/03/01 07:48:44;;;;;;;0.60;0.60;;;0.60;99.90;;;;;;5032552;28;20425;-81
2023/03/01 07:51:10;;;;;;;0.50;0.50;;;0.50;99.90;;;;;;5031726;28;20956;-81
2023/03/01 07:53:35;;;;;;;0.50;0.50;;;0.70;99.90;;;;;;5027878;28;20209;-81
2023/03/01 07:56:12;;;;;;;0.60;0.60;;;0.60;99.90;;;;;;5017647;28;21109;-81
2023/03/01 07:58:40;;;;;;;0.60;0.60;;;0.80;99.90;;;;;;5023289;28;20210;-81
2023/03/01 08:01:12;;;;;;;0.50;0.50;;;0.70;99.90;;;;;;5022496;28;20495;-81
2023/03/01 08:03:38;;;;;;;0.50;0.50;;;0.80;99.90;;;;;;5008946;28;20524;-81
2023/03/01 08:06:05;;;;;;;0.60;0.60;;;0.60;99.90;;;;;;5003214;28;20444;-81
2023/03/01 08:08:31;;;;;;;0.50;0.50;;;0.50;99.90;;;;;;5021493;28;20946;-81
2023/03/01 08:11:01;;;;;;;0.50;0.50;;;0.50;99.90;;;;;;5017412;28;20441;-81
2023/03/01 08:13:28;;;;;;;0.47;0.47;;;0.70;99.90;;;;;;5032922;28;20484;-82
2023/03/01 08:15:54;;;;;;;0.50;0.50;;;1.00;99.90;;;;;;5015095;28;20485;-81
2023/03/01 08:18:20;;;;;;;0.60;0.60;;;0.90;99.90;;;;;;5036152;28;21206;-82
2023/03/01 08:20:46;;;;;;;0.60;0.60;;;0.80;99.90;;;;;;5038194;28;20922;-83
2023/03/01 08:23:12;;;;;;;0.50;0.50;;;0.80;99.90;;;;;;5038825;28;20544;-82
2023/03/01 08:25:38;;;;;;;0.40;0.40;;;0.80;99.90;;;;;;5032570;28;20206;-82
2023/03/01 08:28:04;;;;;;;0.50;0.50;;;1.00;99.90;;;;;;5040378;28;20560;-82
2023/03/01 08:30:30;;;;;;;0.50;0.50;;;1.20;99.90;;;;;;5031697;28;20437;-83
2023/03/01 08:32:56;;;;;;;0.40;0.40;;;1.00;99.90;;;;;;5046154;28;20488;-83
2023/03/01 08:35:21;;;;;;;0.47;0.47;;;1.20;99.90;;;;;;5031037;28;20183;-82
2023/03/01 08:37:47;;;;;;;0.50;0.50;;;1.10;99.90;;;;;;5014919;28;20251;-83
2023/03/01 08:40:13;;;;;;;0.47;0.47;;;1.30;99.90;;;;;;5020619;28;20190;-82
2023/03/01 08:42:40;;;;;;;0.50;0.50;;;1.40;99.90;;;;;;5045158;28;20223;-82
2023/03/01 08:45:07;;;;;;;0.50;0.50;;;1.40;99.90;;;;;;5023936;28;20426;-83
2023/03/01 08:47:35;;;;;;;0.50;0.50;;;1.30;99.90;;;;;;5014462;28;20515;-82
2023/03/01 08:50:01;;;;;;;0.40;0.40;;;1.40;99.90;;;;;;5016810;28;20491;-84
2023/03/01 08:52:26;;;;;;;0.50;0.50;;;1.30;99.90;;;;;;5017692;28;21006;-84
2023/03/01 08:54:52;;;;;;;0.40;0.40;;;1.20;99.90;;;;;;5019176;28;20196;-86
2023/03/01 08:57:18;;;;;;;0.50;0.50;;;1.10;99.90;;;;;;5025460;28;20227;-81
2023/03/01 08:59:43;;;;;;;0.40;0.40;;;1.10;99.90;;;;;;5031820;28;20476;-81
2023/03/01 09:02:15;;;;;;;0.43;0.43;;;1.20;99.90;;;;;;5030476;28;20644;-80
2023/03/01 09:04:41;;;;;;;0.40;0.40;;;1.30;99.90;;;;;;5028947;28;20199;-94
2023/03/01 09:07:06;;;;;;;0.47;0.47;;;0.90;99.90;;;;;;5027286;28;20442;-82
2023/03/01 09:09:32;;;;;;;0.50;0.50;;;0.70;99.90;;;;;;5028477;28;20814;-87
2023/03/01 09:11:58;;;;;;;0.40;0.40;;;1.00;99.90;;;;;;5009295;28;20714;-87
2023/03/01 09:14:23;;;;;;;0.60;0.60;;;1.30;99.90;;;;;;5029272;28;20639;-84
2023/03/01 09:16:49;;;;;;;0.50;0.50;;;0.90;99.90;;;;;;5028167;28;20219;-86
2023/03/01 09:19:16;;;;;;;0.40;0.40;;;1.10;99.90;;;;;;5011730;28;20182;-83
2023/03/01 09:21:51;;;;;;;0.40;0.40;;;1.30;99.90;;;;;;5025624;28;20454;-87
2023/03/01 09:24:17;;;;;;;0.40;0.40;;;1.30;99.90;;;;;;5028949;28;20768;-86
2023/03/01 09:26:46;;;;;;;0.40;0.40;;;1.30;99.90;;;;;;5010925;28;21003;-85
2023/03/01 09:29:11;;;;;;;0.40;0.40;;;1.30;99.90;;;;;;5007150;28;20652;-83
2023/03/01 09:31:37;;;;;;;0.50;0.50;;;1.20;99.90;;;;;;5012452;28;20450;-82
2023/03/01 09:34:02;;;;;;;0.50;0.50;;;1.30;99.90;;;;;;5015620;28;20195;-82
2023/03/01 09:36:28;;;;;;;0.40;0.40;;;1.50;99.90;;;;;;5020247;28;20307;-82
2023/03/01 09:38:54;;;;;;;0.50;0.50;;;1.40;99.90;;;;;;5028894;28;20191;-82
2023/03/01 09:41:40;;;;;;;0.40;0.40;;;1.50;99.90;;;;;;5028088;28;20215;-81
2023/03/01 09:44:29;;;;;;;0.40;0.40;;;1.20;99.90;;;;;;5011266;28;20450;-81
2023/03/01 09:46:56;;;;;;;0.50;0.50;;;1.20;99.90;;;;;;4980502;28;20523;-81
2023/03/01 09:49:25;;;;;;;0.40;0.40;;;1.10;99.90;;;;;;5011112;28;20976;-81
2023/03/01 09:52:15;;;;;;;0.40;0.40;;;1.40;99.90;;;;;;5028608;28;20442;-81
2023/03/01 09:54:40;;;;;;;0.50;0.50;;;1.70;99.90;;;;;;5028031;28;20438;-80
2023/03/01 09:57:20;;;;;;;0.40;0.40;;;1.80;99.90;;;;;;5023416;28;20494;-80
2023/03/01 09:59:55;;;;;;;0.40;0.40;;;1.90;99.90;;;;;;5008714;28;20194;-80
2023/03/01 10:02:38;;;;;;;0.30;0.30;;;1.40;99.90;;;;;;5026525;28;20462;-80
2023/03/01 10:05:09;;;;;;;0.40;0.40;;;2.00;99.90;;;;;;5028988;28;20921;-80
2023/03/01 10:07:49;;;;;;;0.40;0.40;;;2.30;99.90;;;;;;5029666;28;20812;-80
2023/03/01 10:10:33;;;;;;;0.50;0.50;;;2.20;99.90;;;;;;5008270;28;20445;-80
2023/03/01 10:13:02;;;;;;;0.30;0.30;;;2.30;99.90;;;;;;5012284;28;20965;-80
2023/03/01 10:15:41;;;;;;;0.40;0.40;;;2.40;99.90;;;;;;5020390;28;20439;-80
2023/03/01 10:18:16;;;;;;;0.40;0.40;;;2.40;99.90;;;;;;5016815;28;20466;-80
2023/03/01 10:21:03;;;;;;;0.50;0.50;;;2.10;99.90;;;;;;5019788;28;20433;-79
2023/03/01 10:23:34;;;;;;;0.50;0.50;;;2.10;99.90;;;;;;5007699;28;20489;-80
2023/03/01 10:26:17;;;;;;;0.40;0.40;;;2.20;99.90;;;;;;5039153;28;20446;-79
2023/03/01 10:29:07;;;;;;;0.40;0.40;;;1.90;99.90;;;;;;5022157;28;20460;-79
2023/03/01 10:31:49;;;;;;;0.40;0.40;;;2.30;99.90;;;;;;5019222;28;20446;-80
2023/03/01 10:34:22;;;;;;;0.40;0.40;;;2.30;99.90;;;;;;5011446;28;20435;-79
2023/03/01 10:36:50;;;;;;;0.30;0.30;;;2.20;99.90;;;;;;5008974;28;20479;-79
2023/03/01 10:39:19;;;;;;;0.40;0.40;;;1.90;99.90;;;;;;5041794;28;20441;-79
2023/03/01 10:42:03;;;;;;;0.50;0.50;;;1.60;99.90;;;;;;5033195;28;20474;-79
2023/03/01 10:44:47;;;;;;;0.40;0.40;;;2.20;99.90;;;;;;5025289;28;20516;-80
2023/03/01 10:47:20;;;;;;;0.40;0.40;;;2.30;99.90;;;;;;5024745;28;20456;-80
2023/03/01 10:49:53;;;;;;;0.40;0.40;;;2.50;99.90;;;;;;5009006;28;20596;-80
2023/03/01 10:52:22;;;;;;;0.40;0.40;;;2.30;99.90;;;;;;5015543;28;20484;-79
2023/03/01 10:54:59;;;;;;;0.47;0.47;;;1.90;99.90;;;;;;5037243;28;20467;-80
2023/03/01 10:57:31;;;;;;;0.50;0.50;;;2.50;99.90;;;;;;5013879;28;20553;-80
2023/03/01 11:00:16;;;;;;;0.50;0.50;;;2.30;99.90;;;;;;5022120;28;20446;-80
2023/03/01 11:02:42;;;;;;;0.50;0.50;;;2.60;99.90;;;;;;5026877;28;20907;-80
2023/03/01 11:05:20;;;;;;;0.50;0.50;;;2.70;99.90;;;;;;5026947;28;20437;-79
2023/03/01 11:07:52;;;;;;;0.40;0.40;;;2.80;99.90;;;;;;5025641;28;20187;-80
2023/03/01 11:10:32;;;;;;;0.40;0.40;;;3.10;99.90;;;;;;5032221;28;20445;-80
2023/03/01 11:13:18;;;;;;;0.43;0.43;;;2.90;99.90;;;;;;5007659;28;20530;-80
2023/03/01 11:16:09;;;;;;;0.50;0.50;;;2.60;99.90;;;;;;5014423;28;20442;-80
2023/03/01 11:18:35;;;;;;;0.50;0.50;;;2.50;99.90;;;;;;5033011;28;20464;-80
2023/03/01 11:21:02;;;;;;;0.40;0.40;;;2.60;99.90;;;;;;5026657;28;20938;-80
2023/03/01 11:23:29;;;;;;;0.50;0.50;;;2.80;99.90;;;;;;5022735;28;20195;-81
2023/03/01 11:26:07;;;;;;;0.40;0.40;;;2.80;99.90;;;;;;5027743;28;20492;-81
2023/03/01 11:28:35;;;;;;;0.50;0.50;;;2.50;99.90;;;;;;5026020;28;20434;-80
2023/03/01 11:31:13;;;;;;;0.50;0.50;;;2.40;99.90;;;;;;5017737;28;20531;-80
2023/03/01 11:34:01;;;;;;;0.47;0.47;;;2.40;99.90;;;;;;5024331;28;20544;-80
2023/03/01 11:36:53;;;;;;;0.40;0.40;;;2.70;99.90;;;;;;5020644;28;20474;-80
2023/03/01 11:39:27;;;;;;;0.40;0.40;;;3.00;99.90;;;;;;5019345;28;20466;-81
2023/03/01 11:42:11;;;;;;;0.40;0.40;;;2.80;99.90;;;;;;5017742;28;20493;-81
2023/03/01 11:44:39;;;;;;;0.40;0.40;;;2.70;99.90;;;;;;5035095;28;20441;-81
2023/03/01 11:47:22;;;;;;;0.30;0.30;;;2.50;99.90;;;;;;5034432;28;20477;-81
2023/03/01 11:50:13;;;;;;;0.40;0.40;;;2.70;99.90;;;;;;5029171;28;20827;-81
2023/03/01 11:52:52;;;;;;;0.40;0.40;;;2.80;99.90;;;;;;5020250;28;20465;-80
2023/03/01 11:55:29;;;;;;;0.40;0.40;;;2.80;99.90;;;;;;5021285;28;20826;-80
2023/03/01 11:57:58;;;;;;;0.40;0.40;;;2.60;99.90;;;;;;5022803;28;20477;-79
2023/03/01 12:00:42;;;;;;;0.40;0.40;;;2.50;99.90;;;;;;5023513;28;20438;-80
2023/03/01 12:03:11;;;;;;;0.40;0.40;;;2.80;99.90;;;;;;5023943;28;20487;-80
2023/03/01 12:06:04;;;;;;;0.50;0.50;;;2.60;99.90;;;;;;5008596;28;20442;-80
2023/03/01 12:09:07;;;;;;;0.40;0.40;;;2.80;99.90;;;;;;5021726;28;20446;-80
2023/03/01 12:12:06;;;;;;;0.40;0.40;;;3.00;99.90;;;;;;5029447;28;20547;-81
2023/03/01 12:14:44;;;;;;;0.40;0.40;;;3.10;99.90;;;;;;5020961;28;20445;-80
2023/03/01 12:17:55;;;;;;;0.40;0.40;;;3.50;99.90;;;;;;5026913;28;20482;-80
2023/03/01 12:20:43;;;;;;;0.30;0.30;;;3.60;99.90;;;;;;5025983;28;20984;-84
2023/03/01 12:23:39;;;;;;;0.37;0.37;;;3.50;99.90;;;;;;5021635;28;21004;-81
2023/03/01 12:26:16;;;;;;;0.40;0.40;;;3.20;99.90;;;;;;5005881;28;20974;-81
2023/03/01 12:28:55;;;;;;;0.40;0.40;;;3.20;99.90;;;;;;5029167;28;20450;-82
2023/03/01 12:31:40;;;;;;;0.40;0.40;;;3.10;99.90;;;;;;5030914;28;20891;-82
2023/03/01 12:34:43;;;;;;;0.40;0.40;;;2.90;99.90;;;;;;5023738;28;20426;-81
2023/03/01 12:37:32;;;;;;;0.40;0.40;;;3.20;99.90;;;;;;5026114;28;20485;-81
2023/03/01 12:40:18;;;;;;;0.37;0.37;;;3.40;99.90;;;;;;5014087;28;20450;-81
2023/03/01 12:43:20;;;;;;;0.40;0.40;;;3.00;99.90;;;;;;5017344;28;20559;-82
2023/03/01 12:46:15;;;;;;;0.40;0.40;;;2.80;99.90;;;;;;5021705;28;20437;-82
2023/03/01 12:49:10;;;;;;;0.40;0.40;;;3.30;99.90;;;;;;5030239;28;20449;-82
2023/03/01 12:51:38;;;;;;;0.40;0.40;;;3.00;99.90;;;;;;5032011;28;20816;-82
2023/03/01 12:54:14;;;;;;;0.40;0.40;;;3.30;99.90;;;;;;5039526;28;20868;-82
2023/03/01 12:56:41;;;;;;;0.40;0.40;;;3.10;99.90;;;;;;5032326;28;20485;-83
2023/03/01 12:59:40;;;;;;;0.40;0.40;;;3.30;99.90;;;;;;5031560;28;20437;-82
2023/03/01 13:02:18;;;;;;;0.40;0.40;;;3.30;99.90;;;;;;5011609;28;20515;-82
2023/03/01 13:04:57;;;;;;;0.40;0.40;;;3.10;99.90;;;;;;5030141;28;20438;-83
2023/03/01 13:07:28;;;;;;;0.40;0.40;;;3.20;99.90;;;;;;5030445;28;20429;-82
2023/03/01 13:10:14;;;;;;;0.40;0.40;;;3.40;99.90;;;;;;5010877;28;20439;-81
2023/03/01 13:12:49;;;;;;;0.30;0.30;;;2.60;99.90;;;;;;5025291;28;20508;-82
2023/03/01 13:15:25;;;;;;;0.40;0.40;;;2.70;99.90;;;;;;5019602;28;20517;-82
2023/03/01 13:17:55;;;;;;;0.40;0.40;;;3.00;99.90;;;;;;5027850;28;20816;-82
2023/03/01 13:20:45;;;;;;;0.30;0.30;;;2.70;99.90;;;;;;5017976;28;20480;-82
2023/03/01 13:23:26;;;;;;;0.30;0.30;;;2.80;99.90;;;;;;5017525;28;21019;-83
2023/03/01 13:26:13;;;;;;;0.40;0.40;;;2.80;99.90;;;;;;5025312;28;20422;-81
2023/03/01 13:28:45;;;;;;;0.40;0.40;;;3.00;99.90;;;;;;5028349;28;20442;-81
2023/03/01 13:31:18;;;;;;;0.40;0.40;;;3.30;99.90;;;;;;5026563;28;20502;-82
2023/03/01 13:33:49;;;;;;;0.40;0.40;;;3.20;99.90;;;;;;5016441;28;20497;-81
2023/03/01 13:36:35;;;;;;;0.40;0.40;;;3.40;99.90;;;;;;5015108;28;20475;-82
2023/03/01 13:39:28;;;;;;;0.30;0.30;;;3.00;99.90;;;;;;5026363;28;20458;-82
2023/03/01 13:41:55;;;;;;;0.50;0.50;;;3.30;99.90;;;;;;5030025;28;20481;-83
2023/03/01 13:44:25;;;;;;;0.40;0.40;;;3.10;99.90;;;;;;5025657;28;20436;-82
2023/03/01 13:46:55;;;;;;;0.50;0.50;;;2.90;99.90;;;;;;5008618;28;20442;-81
2023/03/01 13:49:41;;;;;;;0.50;0.50;;;3.20;99.90;;;;;;5049394;28;20476;-83
2023/03/01 13:52:42;;;;;;;0.43;0.43;;;2.80;99.90;;;;;;5017657;28;20448;-82
2023/03/01 13:55:23;;;;;;;0.50;0.50;;;3.00;99.90;;;;;;5038058;28;20503;-82
2023/03/01 13:57:57;;;;;;;0.40;0.40;;;3.00;99.90;;;;;;5036945;28;20506;-83
2023/03/01 14:00:29;;;;;;;0.40;0.40;;;3.10;99.90;;;;;;5040426;28;20568;-83
2023/03/01 14:03:10;;;;;;;0.40;0.40;;;3.20;99.90;;;;;;5025873;28;20456;-83
2023/03/01 14:05:36;;;;;;;0.40;0.40;;;3.00;99.90;;;;;;5004423;28;20515;-83
2023/03/01 14:08:17;;;;;;;0.40;0.40;;;2.80;99.90;;;;;;5016444;28;21210;-82
2023/03/01 14:11:07;;;;;;;0.50;0.50;;;2.50;99.90;;;;;;5022061;28;20453;-82
2023/03/01 14:13:49;;;;;;;0.50;0.50;;;2.90;99.90;;;;;;5031784;28;20453;-81
2023/03/01 14:16:53;;;;;;;0.40;0.40;;;3.00;99.90;;;;;;5023738;28;20466;-83
2023/03/01 14:19:25;;;;;;;0.40;0.40;;;2.90;99.90;;;;;;5023915;28;20537;-83
2023/03/01 14:22:07;;;;;;;0.40;0.40;;;2.70;99.90;;;;;;5029969;28;20446;-83
2023/03/01 14:24:37;;;;;;;0.40;0.40;;;2.60;99.90;;;;;;5041321;28;20484;-83